sensor_id;sensor_type;location;lat;lon;timestamp;P1;durP1;ratioP1;P2;durP2;ratioP2
53052;SDS011;38934;52.690;6.184;2023-11-21T00:00:14;56.95;;;21.52;;
53052;SDS011;38934;52.690;6.184;2023-11-21T00:02:41;52.92;;;20.73;;
53052;SDS011;38934;52.690;6.184;2023-11-21T00:05:07;58.38;;;21.85;;
53052;SDS011;38934;52.690;6.184;2023-11-21T00:07:34;58.33;;;20.85;;
53052;SDS011;38934;52.690;6.184;2023-11-21T00:10:01;52.28;;;20.38;;
53052;SDS011;38934;52.690;6.184;2023-11-21T00:12:28;51.40;;;19.48;;
53052;SDS011;38934;52.690;6.184;2023-11-21T00:14:54;48.35;;;19.70;;
53052;SDS011;38934;52.690;6.184;2023-11-21T00:17:21;52.85;;;20.80;;
53052;SDS011;38934;52.690;6.184;2023-11-21T00:19:46;53.20;;;20.13;;
53052;SDS011;38934;52.690;6.184;2023-11-21T00:22:12;57.80;;;21.17;;
53052;SDS011;38934;52.690;6.184;2023-11-21T00:24:37;50.95;;;20.58;;
53052;SDS011;38934;52.690;6.184;2023-11-21T00:27:03;58.40;;;20.70;;
53052;SDS011;38934;52.690;6.184;2023-11-21T00:29:29;53.30;;;21.85;;
53052;SDS011;38934;52.690;6.184;2023-11-21T00:31:54;61.67;;;20.92;;
53052;SDS011;38934;52.690;6.184;2023-11-21T00:34:20;53.67;;;19.65;;
53052;SDS011;38934;52.690;6.184;2023-11-21T00:36:45;50.17;;;19.42;;
53052;SDS011;38934;52.690;6.184;2023-11-21T00:39:11;50.28;;;20.88;;
53052;SDS011;38934;52.690;6.184;2023-11-21T00:41:37;51.78;;;20.33;;
53052;SDS011;38934;52.690;6.184;2023-11-21T00:44:03;56.10;;;20.38;;
53052;SDS011;38934;52.690;6.184;2023-11-21T00:46:28;58.05;;;21.42;;
53052;SDS011;38934;52.690;6.184;2023-11-21T00:48:54;57.88;;;20.80;;
53052;SDS011;38934;52.690;6.184;2023-11-21T00:51:21;66.88;;;22.02;;
53052;SDS011;38934;52.690;6.184;2023-11-21T00:53:47;55.05;;;19.30;;
53052;SDS011;38934;52.690;6.184;2023-11-21T00:56:13;55.13;;;19.95;;
53052;SDS011;38934;52.690;6.184;2023-11-21T00:58:40;58.15;;;20.75;;
53052;SDS011;38934;52.690;6.184;2023-11-21T01:01:11;52.38;;;19.98;;
53052;SDS011;38934;52.690;6.184;2023-11-21T01:03:37;55.22;;;19.65;;
53052;SDS011;38934;52.690;6.184;2023-11-21T01:06:03;61.42;;;21.45;;
53052;SDS011;38934;52.690;6.184;2023-11-21T01:08:32;50.45;;;20.85;;
53052;SDS011;38934;52.690;6.184;2023-11-21T01:10:58;52.65;;;20.48;;
53052;SDS011;38934;52.690;6.184;2023-11-21T01:13:23;52.13;;;19.92;;
53052;SDS011;38934;52.690;6.184;2023-11-21T01:15:54;49.92;;;19.23;;
53052;SDS011;38934;52.690;6.184;2023-11-21T01:18:20;51.40;;;18.92;;
53052;SDS011;38934;52.690;6.184;2023-11-21T01:20:46;50.88;;;19.83;;
53052;SDS011;38934;52.690;6.184;2023-11-21T01:23:12;54.53;;;20.23;;
53052;SDS011;38934;52.690;6.184;2023-11-21T01:25:38;52.33;;;20.23;;
53052;SDS011;38934;52.690;6.184;2023-11-21T01:28:04;52.38;;;19.63;;
53052;SDS011;38934;52.690;6.184;2023-11-21T01:30:29;57.72;;;21.13;;
53052;SDS011;38934;52.690;6.184;2023-11-21T01:32:56;47.20;;;18.80;;
53052;SDS011;38934;52.690;6.184;2023-11-21T01:35:22;49.33;;;19.67;;
53052;SDS011;38934;52.690;6.184;2023-11-21T01:37:47;52.13;;;19.77;;
53052;SDS011;38934;52.690;6.184;2023-11-21T01:40:13;53.60;;;20.13;;
53052;SDS011;38934;52.690;6.184;2023-11-21T01:42:39;53.50;;;20.38;;
53052;SDS011;38934;52.690;6.184;2023-11-21T01:45:05;45.75;;;18.70;;
53052;SDS011;38934;52.690;6.184;2023-11-21T01:47:33;48.60;;;19.48;;
53052;SDS011;38934;52.690;6.184;2023-11-21T01:49:59;46.78;;;19.20;;
53052;SDS011;38934;52.690;6.184;2023-11-21T01:52:25;45.85;;;18.20;;
53052;SDS011;38934;52.690;6.184;2023-11-21T01:54:52;40.40;;;17.75;;
53052;SDS011;38934;52.690;6.184;2023-11-21T01:57:19;43.92;;;18.20;;
53052;SDS011;38934;52.690;6.184;2023-11-21T01:59:45;53.15;;;19.27;;
53052;SDS011;38934;52.690;6.184;2023-11-21T02:02:13;40.75;;;18.65;;
53052;SDS011;38934;52.690;6.184;2023-11-21T02:04:39;49.63;;;20.13;;
53052;SDS011;38934;52.690;6.184;2023-11-21T02:07:05;43.97;;;18.42;;
53052;SDS011;38934;52.690;6.184;2023-11-21T02:09:30;49.38;;;18.50;;
53052;SDS011;38934;52.690;6.184;2023-11-21T02:11:59;46.47;;;18.48;;
53052;SDS011;38934;52.690;6.184;2023-11-21T02:14:26;47.97;;;18.17;;
53052;SDS011;38934;52.690;6.184;2023-11-21T02:16:53;41.58;;;17.50;;
53052;SDS011;38934;52.690;6.184;2023-11-21T02:19:20;49.38;;;17.73;;
53052;SDS011;38934;52.690;6.184;2023-11-21T02:21:54;45.55;;;18.55;;
53052;SDS011;38934;52.690;6.184;2023-11-21T02:24:25;42.30;;;18.10;;
53052;SDS011;38934;52.690;6.184;2023-11-21T02:26:52;43.30;;;17.45;;
53052;SDS011;38934;52.690;6.184;2023-11-21T02:29:18;48.78;;;17.70;;
53052;SDS011;38934;52.690;6.184;2023-11-21T02:31:53;41.90;;;17.27;;
53052;SDS011;38934;52.690;6.184;2023-11-21T02:34:20;49.20;;;17.52;;
53052;SDS011;38934;52.690;6.184;2023-11-21T02:36:46;47.47;;;18.42;;
53052;SDS011;38934;52.690;6.184;2023-11-21T02:39:14;45.38;;;18.17;;
53052;SDS011;38934;52.690;6.184;2023-11-21T02:41:40;47.22;;;17.85;;
53052;SDS011;38934;52.690;6.184;2023-11-21T02:44:06;41.80;;;17.92;;
53052;SDS011;38934;52.690;6.184;2023-11-21T02:46:32;45.30;;;18.02;;
53052;SDS011;38934;52.690;6.184;2023-11-21T02:49:07;46.30;;;19.52;;
53052;SDS011;38934;52.690;6.184;2023-11-21T02:51:35;42.63;;;19.05;;
53052;SDS011;38934;52.690;6.184;2023-11-21T02:54:01;48.03;;;19.80;;
53052;SDS011;38934;52.690;6.184;2023-11-21T02:56:29;47.95;;;20.08;;
53052;SDS011;38934;52.690;6.184;2023-11-21T02:58:57;53.05;;;20.65;;
53052;SDS011;38934;52.690;6.184;2023-11-21T03:01:24;53.15;;;20.00;;
53052;SDS011;38934;52.690;6.184;2023-11-21T03:03:50;47.38;;;20.13;;
53052;SDS011;38934;52.690;6.184;2023-11-21T03:06:17;56.13;;;21.65;;
53052;SDS011;38934;52.690;6.184;2023-11-21T03:08:45;52.55;;;21.60;;
53052;SDS011;38934;52.690;6.184;2023-11-21T03:11:12;53.22;;;21.80;;
53052;SDS011;38934;52.690;6.184;2023-11-21T03:13:41;51.70;;;20.90;;
53052;SDS011;38934;52.690;6.184;2023-11-21T03:16:10;43.92;;;20.73;;
53052;SDS011;38934;52.690;6.184;2023-11-21T03:18:39;47.72;;;20.38;;
53052;SDS011;38934;52.690;6.184;2023-11-21T03:21:05;55.53;;;22.50;;
53052;SDS011;38934;52.690;6.184;2023-11-21T03:23:35;58.83;;;24.10;;
53052;SDS011;38934;52.690;6.184;2023-11-21T03:26:01;57.83;;;24.80;;
53052;SDS011;38934;52.690;6.184;2023-11-21T03:28:27;53.28;;;23.40;;
53052;SDS011;38934;52.690;6.184;2023-11-21T03:30:53;46.15;;;22.38;;
53052;SDS011;38934;52.690;6.184;2023-11-21T03:33:19;49.33;;;23.60;;
53052;SDS011;38934;52.690;6.184;2023-11-21T03:35:45;51.13;;;24.13;;
53052;SDS011;38934;52.690;6.184;2023-11-21T03:38:11;54.42;;;24.77;;
53052;SDS011;38934;52.690;6.184;2023-11-21T03:40:37;49.08;;;23.13;;
53052;SDS011;38934;52.690;6.184;2023-11-21T03:43:04;64.53;;;25.63;;
53052;SDS011;38934;52.690;6.184;2023-11-21T03:45:31;54.47;;;23.95;;
53052;SDS011;38934;52.690;6.184;2023-11-21T03:47:57;52.10;;;24.20;;
53052;SDS011;38934;52.690;6.184;2023-11-21T03:50:22;58.17;;;24.60;;
53052;SDS011;38934;52.690;6.184;2023-11-21T03:52:48;47.95;;;21.95;;
53052;SDS011;38934;52.690;6.184;2023-11-21T03:55:13;60.45;;;25.77;;
53052;SDS011;38934;52.690;6.184;2023-11-21T03:57:50;59.38;;;23.67;;
53052;SDS011;38934;52.690;6.184;2023-11-21T04:00:16;50.90;;;23.40;;
53052;SDS011;38934;52.690;6.184;2023-11-21T04:02:42;54.20;;;23.50;;
53052;SDS011;38934;52.690;6.184;2023-11-21T04:05:08;65.32;;;25.13;;
53052;SDS011;38934;52.690;6.184;2023-11-21T04:07:34;56.72;;;24.98;;
53052;SDS011;38934;52.690;6.184;2023-11-21T04:10:00;59.22;;;24.55;;
53052;SDS011;38934;52.690;6.184;2023-11-21T04:12:26;52.28;;;23.58;;
53052;SDS011;38934;52.690;6.184;2023-11-21T04:14:51;61.08;;;25.30;;
53052;SDS011;38934;52.690;6.184;2023-11-21T04:17:20;55.13;;;23.23;;
53052;SDS011;38934;52.690;6.184;2023-11-21T04:19:46;60.25;;;25.23;;
53052;SDS011;38934;52.690;6.184;2023-11-21T04:22:12;51.53;;;23.40;;
53052;SDS011;38934;52.690;6.184;2023-11-21T04:24:37;55.95;;;25.63;;
53052;SDS011;38934;52.690;6.184;2023-11-21T04:27:03;54.15;;;23.85;;
53052;SDS011;38934;52.690;6.184;2023-11-21T04:29:29;53.38;;;24.13;;
53052;SDS011;38934;52.690;6.184;2023-11-21T04:31:55;51.03;;;23.48;;
53052;SDS011;38934;52.690;6.184;2023-11-21T04:34:20;54.30;;;24.10;;
53052;SDS011;38934;52.690;6.184;2023-11-21T04:36:46;65.32;;;27.67;;
53052;SDS011;38934;52.690;6.184;2023-11-21T04:39:12;63.47;;;25.38;;
53052;SDS011;38934;52.690;6.184;2023-11-21T04:41:37;62.13;;;25.20;;
53052;SDS011;38934;52.690;6.184;2023-11-21T04:44:05;62.92;;;25.02;;
53052;SDS011;38934;52.690;6.184;2023-11-21T04:46:31;52.80;;;24.63;;
53052;SDS011;38934;52.690;6.184;2023-11-21T04:48:57;52.88;;;23.63;;
53052;SDS011;38934;52.690;6.184;2023-11-21T04:51:23;53.83;;;24.50;;
53052;SDS011;38934;52.690;6.184;2023-11-21T04:53:49;62.28;;;25.65;;
53052;SDS011;38934;52.690;6.184;2023-11-21T04:56:14;48.75;;;22.60;;
53052;SDS011;38934;52.690;6.184;2023-11-21T04:58:41;50.40;;;22.30;;
53052;SDS011;38934;52.690;6.184;2023-11-21T05:01:07;53.72;;;23.80;;
53052;SDS011;38934;52.690;6.184;2023-11-21T05:03:32;55.90;;;24.70;;
53052;SDS011;38934;52.690;6.184;2023-11-21T05:05:59;65.75;;;26.13;;
53052;SDS011;38934;52.690;6.184;2023-11-21T05:08:25;68.55;;;25.02;;
53052;SDS011;38934;52.690;6.184;2023-11-21T05:10:51;57.33;;;24.63;;
53052;SDS011;38934;52.690;6.184;2023-11-21T05:13:17;59.38;;;24.77;;
53052;SDS011;38934;52.690;6.184;2023-11-21T05:15:44;58.05;;;23.30;;
53052;SDS011;38934;52.690;6.184;2023-11-21T05:18:10;61.97;;;25.67;;
53052;SDS011;38934;52.690;6.184;2023-11-21T05:20:36;72.53;;;26.77;;
53052;SDS011;38934;52.690;6.184;2023-11-21T05:23:02;60.13;;;25.98;;
53052;SDS011;38934;52.690;6.184;2023-11-21T05:25:28;51.85;;;23.48;;
53052;SDS011;38934;52.690;6.184;2023-11-21T05:27:53;64.82;;;24.02;;
53052;SDS011;38934;52.690;6.184;2023-11-21T05:30:24;59.10;;;25.23;;
53052;SDS011;38934;52.690;6.184;2023-11-21T05:32:49;49.88;;;22.75;;
53052;SDS011;38934;52.690;6.184;2023-11-21T05:35:15;72.78;;;27.52;;
53052;SDS011;38934;52.690;6.184;2023-11-21T05:37:41;72.55;;;26.33;;
53052;SDS011;38934;52.690;6.184;2023-11-21T05:40:07;68.63;;;25.08;;
53052;SDS011;38934;52.690;6.184;2023-11-21T05:42:34;71.07;;;26.77;;
53052;SDS011;38934;52.690;6.184;2023-11-21T05:45:00;80.05;;;29.08;;
53052;SDS011;38934;52.690;6.184;2023-11-21T05:47:36;74.32;;;27.42;;
53052;SDS011;38934;52.690;6.184;2023-11-21T05:50:07;81.25;;;29.02;;
53052;SDS011;38934;52.690;6.184;2023-11-21T05:55:05;53.78;;;24.23;;
53052;SDS011;38934;52.690;6.184;2023-11-21T05:57:35;92.75;;;29.63;;
53052;SDS011;38934;52.690;6.184;2023-11-21T06:00:05;91.85;;;29.98;;
53052;SDS011;38934;52.690;6.184;2023-11-21T06:02:45;77.07;;;29.85;;
53052;SDS011;38934;52.690;6.184;2023-11-21T06:05:11;86.57;;;29.33;;
53052;SDS011;38934;52.690;6.184;2023-11-21T06:07:37;106.72;;;32.28;;
53052;SDS011;38934;52.690;6.184;2023-11-21T06:10:07;87.20;;;30.05;;
53052;SDS011;38934;52.690;6.184;2023-11-21T06:12:36;103.05;;;30.13;;
53052;SDS011;38934;52.690;6.184;2023-11-21T06:15:04;77.45;;;28.23;;
53052;SDS011;38934;52.690;6.184;2023-11-21T06:17:33;84.68;;;28.90;;
53052;SDS011;38934;52.690;6.184;2023-11-21T06:20:01;81.18;;;29.73;;
53052;SDS011;38934;52.690;6.184;2023-11-21T06:22:34;81.05;;;29.52;;
53052;SDS011;38934;52.690;6.184;2023-11-21T06:25:01;119.38;;;33.58;;
53052;SDS011;38934;52.690;6.184;2023-11-21T06:27:28;102.20;;;31.23;;
53052;SDS011;38934;52.690;6.184;2023-11-21T06:29:54;130.07;;;34.83;;
53052;SDS011;38934;52.690;6.184;2023-11-21T06:32:20;99.78;;;32.80;;
53052;SDS011;38934;52.690;6.184;2023-11-21T06:34:47;98.35;;;32.33;;
53052;SDS011;38934;52.690;6.184;2023-11-21T06:37:13;100.35;;;32.22;;
53052;SDS011;38934;52.690;6.184;2023-11-21T06:39:38;110.63;;;33.78;;
53052;SDS011;38934;52.690;6.184;2023-11-21T06:42:04;155.77;;;36.90;;
53052;SDS011;38934;52.690;6.184;2023-11-21T06:44:30;140.65;;;34.13;;
53052;SDS011;38934;52.690;6.184;2023-11-21T06:46:56;119.68;;;34.05;;
53052;SDS011;38934;52.690;6.184;2023-11-21T06:49:21;139.88;;;36.80;;
53052;SDS011;38934;52.690;6.184;2023-11-21T06:51:48;104.55;;;34.03;;
53052;SDS011;38934;52.690;6.184;2023-11-21T06:54:13;122.03;;;35.45;;
53052;SDS011;38934;52.690;6.184;2023-11-21T06:56:39;108.00;;;30.85;;
53052;SDS011;38934;52.690;6.184;2023-11-21T06:59:06;115.60;;;32.75;;
53052;SDS011;38934;52.690;6.184;2023-11-21T07:01:31;122.50;;;33.17;;
53052;SDS011;38934;52.690;6.184;2023-11-21T07:04:03;110.05;;;32.42;;
53052;SDS011;38934;52.690;6.184;2023-11-21T07:06:30;114.65;;;32.90;;
53052;SDS011;38934;52.690;6.184;2023-11-21T07:08:56;119.28;;;33.70;;
53052;SDS011;38934;52.690;6.184;2023-11-21T07:11:22;105.18;;;31.27;;
53052;SDS011;38934;52.690;6.184;2023-11-21T07:13:47;108.35;;;34.15;;
53052;SDS011;38934;52.690;6.184;2023-11-21T07:16:13;121.95;;;33.17;;
53052;SDS011;38934;52.690;6.184;2023-11-21T07:18:40;110.85;;;32.60;;
53052;SDS011;38934;52.690;6.184;2023-11-21T07:21:05;108.30;;;31.92;;
53052;SDS011;38934;52.690;6.184;2023-11-21T07:23:32;81.57;;;29.88;;
53052;SDS011;38934;52.690;6.184;2023-11-21T07:25:57;83.43;;;29.48;;
53052;SDS011;38934;52.690;6.184;2023-11-21T07:28:24;77.68;;;27.92;;
53052;SDS011;38934;52.690;6.184;2023-11-21T07:30:50;73.07;;;27.40;;
53052;SDS011;38934;52.690;6.184;2023-11-21T07:33:16;96.25;;;31.15;;
53052;SDS011;38934;52.690;6.184;2023-11-21T07:35:42;98.40;;;30.33;;
53052;SDS011;38934;52.690;6.184;2023-11-21T07:38:08;93.07;;;30.77;;
53052;SDS011;38934;52.690;6.184;2023-11-21T07:40:34;104.30;;;30.67;;
53052;SDS011;38934;52.690;6.184;2023-11-21T07:42:59;114.43;;;31.35;;
53052;SDS011;38934;52.690;6.184;2023-11-21T07:45:25;109.55;;;30.67;;
53052;SDS011;38934;52.690;6.184;2023-11-21T07:47:53;98.68;;;31.02;;
53052;SDS011;38934;52.690;6.184;2023-11-21T07:50:19;98.32;;;30.05;;
53052;SDS011;38934;52.690;6.184;2023-11-21T07:52:46;85.32;;;28.85;;
53052;SDS011;38934;52.690;6.184;2023-11-21T07:55:11;94.03;;;29.10;;
53052;SDS011;38934;52.690;6.184;2023-11-21T07:57:37;72.05;;;25.70;;
53052;SDS011;38934;52.690;6.184;2023-11-21T08:00:04;73.82;;;26.58;;
53052;SDS011;38934;52.690;6.184;2023-11-21T08:02:34;59.03;;;22.55;;
53052;SDS011;38934;52.690;6.184;2023-11-21T08:04:59;56.03;;;22.38;;
53052;SDS011;38934;52.690;6.184;2023-11-21T08:07:25;42.17;;;19.08;;
53052;SDS011;38934;52.690;6.184;2023-11-21T08:09:51;41.33;;;17.92;;
53052;SDS011;38934;52.690;6.184;2023-11-21T08:12:17;43.50;;;18.25;;
53052;SDS011;38934;52.690;6.184;2023-11-21T08:14:45;39.92;;;16.15;;
53052;SDS011;38934;52.690;6.184;2023-11-21T08:17:11;40.28;;;16.90;;
53052;SDS011;38934;52.690;6.184;2023-11-21T08:19:36;35.15;;;16.15;;
53052;SDS011;38934;52.690;6.184;2023-11-21T08:22:03;34.03;;;15.05;;
53052;SDS011;38934;52.690;6.184;2023-11-21T08:24:29;35.33;;;15.35;;
53052;SDS011;38934;52.690;6.184;2023-11-21T08:26:54;36.35;;;15.88;;
53052;SDS011;38934;52.690;6.184;2023-11-21T08:29:20;26.50;;;13.88;;
53052;SDS011;38934;52.690;6.184;2023-11-21T08:31:45;32.08;;;14.77;;
53052;SDS011;38934;52.690;6.184;2023-11-21T08:34:12;26.67;;;12.63;;
53052;SDS011;38934;52.690;6.184;2023-11-21T08:36:42;29.10;;;13.48;;
53052;SDS011;38934;52.690;6.184;2023-11-21T08:39:08;26.85;;;13.93;;
53052;SDS011;38934;52.690;6.184;2023-11-21T08:41:35;26.02;;;13.20;;
53052;SDS011;38934;52.690;6.184;2023-11-21T08:44:01;27.88;;;14.40;;
53052;SDS011;38934;52.690;6.184;2023-11-21T08:46:31;25.15;;;13.40;;
53052;SDS011;38934;52.690;6.184;2023-11-21T08:48:58;30.20;;;14.38;;
53052;SDS011;38934;52.690;6.184;2023-11-21T08:51:26;33.80;;;16.63;;
53052;SDS011;38934;52.690;6.184;2023-11-21T08:53:51;30.15;;;14.32;;
53052;SDS011;38934;52.690;6.184;2023-11-21T08:56:18;28.63;;;15.90;;
53052;SDS011;38934;52.690;6.184;2023-11-21T08:58:45;33.67;;;16.45;;
53052;SDS011;38934;52.690;6.184;2023-11-21T09:01:12;33.30;;;16.27;;
53052;SDS011;38934;52.690;6.184;2023-11-21T09:03:38;33.85;;;16.35;;
53052;SDS011;38934;52.690;6.184;2023-11-21T09:06:04;34.92;;;16.75;;
53052;SDS011;38934;52.690;6.184;2023-11-21T09:08:30;37.35;;;16.67;;
53052;SDS011;38934;52.690;6.184;2023-11-21T09:10:56;33.53;;;17.02;;
53052;SDS011;38934;52.690;6.184;2023-11-21T09:13:22;37.95;;;16.73;;
53052;SDS011;38934;52.690;6.184;2023-11-21T09:15:50;33.58;;;16.35;;
53052;SDS011;38934;52.690;6.184;2023-11-21T09:18:16;29.85;;;16.35;;
53052;SDS011;38934;52.690;6.184;2023-11-21T09:20:42;39.25;;;16.92;;
53052;SDS011;38934;52.690;6.184;2023-11-21T09:23:09;34.75;;;15.63;;
53052;SDS011;38934;52.690;6.184;2023-11-21T09:25:35;35.63;;;15.90;;
53052;SDS011;38934;52.690;6.184;2023-11-21T09:28:02;35.08;;;16.27;;
53052;SDS011;38934;52.690;6.184;2023-11-21T09:30:34;30.10;;;15.35;;
53052;SDS011;38934;52.690;6.184;2023-11-21T09:33:01;33.47;;;15.98;;
53052;SDS011;38934;52.690;6.184;2023-11-21T09:35:27;34.20;;;15.13;;
53052;SDS011;38934;52.690;6.184;2023-11-21T09:37:53;30.77;;;14.52;;
53052;SDS011;38934;52.690;6.184;2023-11-21T09:40:20;36.42;;;15.48;;
53052;SDS011;38934;52.690;6.184;2023-11-21T09:42:56;32.67;;;15.35;;
53052;SDS011;38934;52.690;6.184;2023-11-21T09:45:29;30.77;;;14.82;;
53052;SDS011;38934;52.690;6.184;2023-11-21T09:47:59;36.13;;;15.02;;
53052;SDS011;38934;52.690;6.184;2023-11-21T09:50:25;32.25;;;15.32;;
53052;SDS011;38934;52.690;6.184;2023-11-21T09:53:07;32.97;;;14.13;;
53052;SDS011;38934;52.690;6.184;2023-11-21T09:55:44;34.72;;;14.02;;
53052;SDS011;38934;52.690;6.184;2023-11-21T09:58:11;29.33;;;12.50;;
53052;SDS011;38934;52.690;6.184;2023-11-21T10:00:42;29.77;;;12.30;;
53052;SDS011;38934;52.690;6.184;2023-11-21T10:03:10;29.40;;;12.75;;
53052;SDS011;38934;52.690;6.184;2023-11-21T10:05:37;29.77;;;12.18;;
53052;SDS011;38934;52.690;6.184;2023-11-21T10:08:09;29.05;;;12.45;;
53052;SDS011;38934;52.690;6.184;2023-11-21T10:13:06;30.95;;;12.82;;
53052;SDS011;38934;52.690;6.184;2023-11-21T10:15:35;31.00;;;13.10;;
53052;SDS011;38934;52.690;6.184;2023-11-21T10:18:02;31.63;;;14.15;;
53052;SDS011;38934;52.690;6.184;2023-11-21T10:20:28;34.55;;;13.98;;
53052;SDS011;38934;52.690;6.184;2023-11-21T10:22:55;37.20;;;14.65;;
53052;SDS011;38934;52.690;6.184;2023-11-21T10:25:22;40.42;;;13.95;;
53052;SDS011;38934;52.690;6.184;2023-11-21T10:27:48;36.15;;;16.40;;
53052;SDS011;38934;52.690;6.184;2023-11-21T10:30:16;47.53;;;18.48;;
53052;SDS011;38934;52.690;6.184;2023-11-21T10:32:43;57.40;;;21.55;;
53052;SDS011;38934;52.690;6.184;2023-11-21T10:35:09;57.67;;;22.27;;
53052;SDS011;38934;52.690;6.184;2023-11-21T10:37:36;71.65;;;23.45;;
53052;SDS011;38934;52.690;6.184;2023-11-21T10:40:08;63.35;;;22.88;;
53052;SDS011;38934;52.690;6.184;2023-11-21T10:42:37;64.50;;;25.05;;
53052;SDS011;38934;52.690;6.184;2023-11-21T10:45:07;64.88;;;24.45;;
53052;SDS011;38934;52.690;6.184;2023-11-21T10:47:40;57.30;;;22.67;;
53052;SDS011;38934;52.690;6.184;2023-11-21T10:50:06;56.40;;;21.98;;
53052;SDS011;38934;52.690;6.184;2023-11-21T10:52:36;40.33;;;19.70;;
53052;SDS011;38934;52.690;6.184;2023-11-21T10:55:20;43.17;;;20.10;;
53052;SDS011;38934;52.690;6.184;2023-11-21T10:57:51;40.55;;;19.25;;
53052;SDS011;38934;52.690;6.184;2023-11-21T11:00:18;38.60;;;19.15;;
53052;SDS011;38934;52.690;6.184;2023-11-21T11:02:52;36.20;;;19.13;;
53052;SDS011;38934;52.690;6.184;2023-11-21T11:05:20;35.05;;;18.35;;
53052;SDS011;38934;52.690;6.184;2023-11-21T11:07:50;35.97;;;18.98;;
53052;SDS011;38934;52.690;6.184;2023-11-21T11:10:19;38.15;;;19.23;;
53052;SDS011;38934;52.690;6.184;2023-11-21T11:12:47;35.38;;;19.25;;
53052;SDS011;38934;52.690;6.184;2023-11-21T11:15:14;37.22;;;18.67;;
53052;SDS011;38934;52.690;6.184;2023-11-21T11:17:41;38.83;;;20.35;;
53052;SDS011;38934;52.690;6.184;2023-11-21T11:20:10;34.13;;;20.02;;
53052;SDS011;38934;52.690;6.184;2023-11-21T11:25:35;34.83;;;19.55;;
53052;SDS011;38934;52.690;6.184;2023-11-21T11:28:34;34.97;;;19.20;;
53052;SDS011;38934;52.690;6.184;2023-11-21T11:36:31;30.90;;;17.45;;
53052;SDS011;38934;52.690;6.184;2023-11-21T11:39:02;31.25;;;17.52;;
53052;SDS011;38934;52.690;6.184;2023-11-21T11:41:33;29.02;;;16.98;;
53052;SDS011;38934;52.690;6.184;2023-11-21T11:44:00;27.52;;;16.25;;
53052;SDS011;38934;52.690;6.184;2023-11-21T11:46:47;30.80;;;17.35;;
53052;SDS011;38934;52.690;6.184;2023-11-21T11:49:27;31.02;;;17.23;;
53052;SDS011;38934;52.690;6.184;2023-11-21T11:55:11;35.45;;;17.92;;
53052;SDS011;38934;52.690;6.184;2023-11-21T11:57:44;29.63;;;17.00;;
53052;SDS011;38934;52.690;6.184;2023-11-21T12:00:21;32.00;;;17.40;;
53052;SDS011;38934;52.690;6.184;2023-11-21T12:03:00;31.38;;;17.40;;
53052;SDS011;38934;52.690;6.184;2023-11-21T12:05:33;31.13;;;17.98;;
53052;SDS011;38934;52.690;6.184;2023-11-21T12:08:11;30.92;;;17.77;;
53052;SDS011;38934;52.690;6.184;2023-11-21T12:10:37;31.98;;;17.25;;
53052;SDS011;38934;52.690;6.184;2023-11-21T12:13:08;33.42;;;17.65;;
53052;SDS011;38934;52.690;6.184;2023-11-21T12:15:38;28.20;;;17.70;;
53052;SDS011;38934;52.690;6.184;2023-11-21T12:18:06;29.50;;;17.50;;
53052;SDS011;38934;52.690;6.184;2023-11-21T12:20:32;26.95;;;16.70;;
53052;SDS011;38934;52.690;6.184;2023-11-21T12:23:03;25.63;;;15.65;;
53052;SDS011;38934;52.690;6.184;2023-11-21T12:25:30;24.45;;;15.70;;
53052;SDS011;38934;52.690;6.184;2023-11-21T12:27:58;20.73;;;14.02;;
53052;SDS011;38934;52.690;6.184;2023-11-21T12:30:26;20.13;;;13.55;;
53052;SDS011;38934;52.690;6.184;2023-11-21T12:33:00;18.38;;;12.38;;
53052;SDS011;38934;52.690;6.184;2023-11-21T12:35:28;18.42;;;12.80;;
53052;SDS011;38934;52.690;6.184;2023-11-21T12:37:56;18.55;;;11.65;;
53052;SDS011;38934;52.690;6.184;2023-11-21T12:40:25;17.75;;;11.75;;
53052;SDS011;38934;52.690;6.184;2023-11-21T12:42:55;18.55;;;12.30;;
53052;SDS011;38934;52.690;6.184;2023-11-21T12:45:23;18.75;;;11.73;;
53052;SDS011;38934;52.690;6.184;2023-11-21T12:50:24;17.67;;;12.35;;
53052;SDS011;38934;52.690;6.184;2023-11-21T12:53:00;18.27;;;12.73;;
53052;SDS011;38934;52.690;6.184;2023-11-21T12:55:29;17.70;;;12.82;;
53052;SDS011;38934;52.690;6.184;2023-11-21T12:58:02;17.45;;;12.45;;
53052;SDS011;38934;52.690;6.184;2023-11-21T13:00:48;20.00;;;11.75;;
53052;SDS011;38934;52.690;6.184;2023-11-21T13:03:14;16.58;;;11.95;;
53052;SDS011;38934;52.690;6.184;2023-11-21T13:05:43;15.27;;;11.70;;
53052;SDS011;38934;52.690;6.184;2023-11-21T13:08:11;17.88;;;11.95;;
53052;SDS011;38934;52.690;6.184;2023-11-21T13:10:41;17.02;;;12.30;;
53052;SDS011;38934;52.690;6.184;2023-11-21T13:13:11;15.05;;;10.93;;
53052;SDS011;38934;52.690;6.184;2023-11-21T13:15:46;14.98;;;10.10;;
53052;SDS011;38934;52.690;6.184;2023-11-21T13:18:16;15.35;;;10.60;;
53052;SDS011;38934;52.690;6.184;2023-11-21T13:20:42;13.90;;;10.43;;
53052;SDS011;38934;52.690;6.184;2023-11-21T13:23:09;14.68;;;10.02;;
53052;SDS011;38934;52.690;6.184;2023-11-21T13:25:41;15.60;;;10.77;;
53052;SDS011;38934;52.690;6.184;2023-11-21T13:28:07;16.30;;;10.10;;
53052;SDS011;38934;52.690;6.184;2023-11-21T13:30:34;15.45;;;11.15;;
53052;SDS011;38934;52.690;6.184;2023-11-21T13:33:03;16.05;;;10.95;;
53052;SDS011;38934;52.690;6.184;2023-11-21T13:35:34;15.82;;;11.30;;
53052;SDS011;38934;52.690;6.184;2023-11-21T13:38:20;14.88;;;10.30;;
53052;SDS011;38934;52.690;6.184;2023-11-21T13:40:50;14.63;;;10.50;;
53052;SDS011;38934;52.690;6.184;2023-11-21T13:43:20;16.08;;;11.07;;
53052;SDS011;38934;52.690;6.184;2023-11-21T13:45:49;14.23;;;9.90;;
53052;SDS011;38934;52.690;6.184;2023-11-21T13:48:20;14.55;;;9.75;;
53052;SDS011;38934;52.690;6.184;2023-11-21T13:50:53;12.90;;;9.10;;
53052;SDS011;38934;52.690;6.184;2023-11-21T13:53:27;12.95;;;9.23;;
53052;SDS011;38934;52.690;6.184;2023-11-21T13:55:55;14.02;;;9.80;;
53052;SDS011;38934;52.690;6.184;2023-11-21T13:58:22;12.88;;;9.23;;
53052;SDS011;38934;52.690;6.184;2023-11-21T14:00:57;13.02;;;9.18;;
53052;SDS011;38934;52.690;6.184;2023-11-21T14:03:23;14.10;;;9.93;;
53052;SDS011;38934;52.690;6.184;2023-11-21T14:05:57;12.55;;;9.00;;
53052;SDS011;38934;52.690;6.184;2023-11-21T14:08:25;13.05;;;9.40;;
53052;SDS011;38934;52.690;6.184;2023-11-21T14:10:57;13.63;;;9.50;;
53052;SDS011;38934;52.690;6.184;2023-11-21T14:13:25;12.15;;;8.88;;
53052;SDS011;38934;52.690;6.184;2023-11-21T14:15:51;15.32;;;9.23;;
53052;SDS011;38934;52.690;6.184;2023-11-21T14:18:23;13.32;;;9.80;;
53052;SDS011;38934;52.690;6.184;2023-11-21T14:20:56;16.98;;;10.80;;
53052;SDS011;38934;52.690;6.184;2023-11-21T14:23:22;14.05;;;8.90;;
53052;SDS011;38934;52.690;6.184;2023-11-21T14:25:48;15.65;;;9.20;;
53052;SDS011;38934;52.690;6.184;2023-11-21T14:28:15;12.35;;;9.00;;
53052;SDS011;38934;52.690;6.184;2023-11-21T14:30:41;13.57;;;8.98;;
53052;SDS011;38934;52.690;6.184;2023-11-21T14:33:07;13.18;;;8.52;;
53052;SDS011;38934;52.690;6.184;2023-11-21T14:35:35;11.85;;;8.05;;
53052;SDS011;38934;52.690;6.184;2023-11-21T14:38:01;12.40;;;8.30;;
53052;SDS011;38934;52.690;6.184;2023-11-21T14:40:29;12.43;;;8.90;;
53052;SDS011;38934;52.690;6.184;2023-11-21T14:43:00;12.25;;;8.48;;